createdAt,value
2019-01-17T00:00:56.926Z,98697.09
2019-01-17T00:03:44.248Z,98689.08
2019-01-17T00:06:32.697Z,98694.64
2019-01-17T00:09:23.505Z,98700.59
2019-01-17T00:12:16.048Z,98703.29
2019-01-17T00:15:05.827Z,98709.95
2019-01-17T00:17:49.062Z,98714.39
2019-01-17T00:20:42.009Z,98710.98
2019-01-17T00:23:26.567Z,98716.95
2019-01-17T00:26:15.425Z,98715.08
2019-01-17T00:29:11.558Z,98709.66
2019-01-17T00:32:13.726Z,98722.50
2019-01-17T00:35:04.946Z,98711.66
2019-01-17T00:38:06.087Z,98712.17
2019-01-17T00:41:07.848Z,98716.70
2019-01-17T00:43:58.858Z,98719.38
2019-01-17T00:46:47.101Z,98722.88
2019-01-17T00:49:33.402Z,98714.74
2019-01-17T00:52:35.162Z,98716.56
2019-01-17T00:55:34.470Z,98716.27
2019-01-17T00:58:23.838Z,98724.45
2019-01-17T01:01:20.580Z,98713.73
2019-01-17T01:04:08.518Z,98720.14
2019-01-17T01:06:58.540Z,98717.36
2019-01-17T01:09:47.678Z,98713.66
2019-01-17T01:12:43.593Z,98719.81
2019-01-17T01:15:30.403Z,98720.58
2019-01-17T01:18:19.367Z,98706.82
2019-01-17T01:21:18.568Z,98703.34
2019-01-17T01:24:17.666Z,98712.80
2019-01-17T01:27:13.385Z,98714.89
2019-01-17T01:30:12.309Z,98724.67
2019-01-17T01:33:04.814Z,98722.93
2019-01-17T01:36:00.953Z,98733.64
2019-01-17T01:38:59.745Z,98724.45
2019-01-17T01:41:57.078Z,98729.02
2019-01-17T01:44:49.958Z,98726.41
2019-01-17T01:47:42.915Z,98720.54
2019-01-17T01:50:42.011Z,98724.12
2019-01-17T01:53:13.051Z,98727.92
2019-01-17T01:55:43.897Z,98730.09
2019-01-17T01:58:14.896Z,98724.62
2019-01-17T02:00:45.753Z,98723.58
2019-01-17T02:03:16.645Z,98721.66
2019-01-17T02:05:47.530Z,98719.67
2019-01-17T02:08:18.683Z,98720.72
2019-01-17T02:10:49.730Z,98722.67
2019-01-17T02:13:20.723Z,98720.72
2019-01-17T02:15:51.598Z,98721.44
2019-01-17T02:18:22.587Z,98718.55
2019-01-17T02:20:53.484Z,98721.01
2019-01-17T02:23:24.488Z,98716.38
2019-01-17T02:25:55.362Z,98721.01
2019-01-17T02:28:26.240Z,98717.72
2019-01-17T02:30:57.122Z,98714.82
2019-01-17T02:33:28.114Z,98709.39
2019-01-17T02:35:59.016Z,98699.06
2019-01-17T02:38:29.907Z,98692.98
2019-01-17T02:41:00.674Z,98696.46
2019-01-17T02:43:32.402Z,98691.54
2019-01-17T02:46:03.189Z,98688.13
2019-01-17T02:48:34.156Z,98687.56
2019-01-17T02:51:05.043Z,98690.30
2019-01-17T02:53:36.238Z,98686.69
2019-01-17T02:56:08.163Z,98690.77
2019-01-17T02:58:39.165Z,98682.16
2019-01-17T03:01:10.027Z,98680.82
2019-01-17T03:03:41.117Z,98672.17
2019-01-17T03:06:12.007Z,98664.86
2019-01-17T03:08:43.004Z,98665.91
2019-01-17T03:11:14.005Z,98659.50
2019-01-17T03:13:44.973Z,98660.00
2019-01-17T03:16:15.861Z,98657.61
2019-01-17T03:18:46.953Z,98654.64
2019-01-17T03:21:17.756Z,98643.36
2019-01-17T03:23:48.761Z,98638.22
2019-01-17T03:26:19.618Z,98631.20
2019-01-17T03:28:50.673Z,98623.05
2019-01-17T03:31:21.494Z,98625.84
2019-01-17T03:33:52.567Z,98617.02
2019-01-17T03:36:23.493Z,98611.17
2019-01-17T03:38:54.463Z,98600.50
2019-01-17T03:41:25.360Z,98600.00
2019-01-17T03:43:56.805Z,98589.73
2019-01-17T03:46:27.637Z,98590.40
2019-01-17T03:48:59.038Z,98586.64
2019-01-17T03:51:29.926Z,98583.13
2019-01-17T03:54:00.749Z,98572.57
2019-01-17T03:56:31.742Z,98576.52
2019-01-17T03:59:02.773Z,98565.59
2019-01-17T04:01:33.676Z,98563.64
2019-01-17T04:04:04.933Z,98558.88
2019-01-17T04:06:35.953Z,98561.83
2019-01-17T04:09:08.315Z,98551.30
2019-01-17T04:11:39.176Z,98543.22
2019-01-17T04:14:10.066Z,98540.53
2019-01-17T04:16:40.877Z,98549.47
2019-01-17T04:19:11.733Z,98549.95
2019-01-17T04:21:43.547Z,98549.86
2019-01-17T04:24:14.436Z,98544.83
2019-01-17T04:26:45.216Z,98543.44
2019-01-17T04:29:16.192Z,98536.74
2019-01-17T04:31:47.113Z,98522.74
2019-01-17T04:34:18.113Z,98526.03
2019-01-17T04:36:48.969Z,98512.98
2019-01-17T04:39:19.973Z,98504.61
2019-01-17T04:41:50.850Z,98508.02
2019-01-17T04:44:21.846Z,98509.06
2019-01-17T04:46:52.637Z,98507.63
2019-01-17T04:49:23.881Z,98506.51
2019-01-17T04:51:54.807Z,98504.73
2019-01-17T04:54:26.090Z,98502.83
2019-01-17T04:56:56.653Z,98502.83
2019-01-17T04:59:27.338Z,98502.83
2019-01-17T05:01:58.267Z,98497.57
2019-01-17T05:04:29.264Z,98491.27
2019-01-17T05:07:00.036Z,98487.69
2019-01-17T05:09:31.019Z,98485.23
2019-01-17T05:12:01.915Z,98486.23
2019-01-17T05:14:33.021Z,98481.89
2019-01-17T05:17:03.902Z,98483.48
2019-01-17T05:19:34.776Z,98487.77
2019-01-17T05:22:05.567Z,98484.64
2019-01-17T05:24:36.552Z,98487.48
2019-01-17T05:27:07.434Z,98480.84
2019-01-17T05:29:38.422Z,98475.86
2019-01-17T05:32:09.130Z,98482.49
2019-01-17T05:34:40.058Z,98486.83
2019-01-17T05:37:10.897Z,98486.67
2019-01-17T05:39:41.970Z,98479.97
2019-01-17T05:42:12.777Z,98488.70
2019-01-17T05:44:43.668Z,98483.74
2019-01-17T05:47:14.345Z,98488.29
2019-01-17T05:49:45.325Z,98488.25
2019-01-17T05:52:16.225Z,98498.23
2019-01-17T05:54:47.504Z,98504.96
2019-01-17T05:57:18.397Z,98504.21
2019-01-17T05:59:49.385Z,98505.61
2019-01-17T06:02:20.277Z,98502.64
2019-01-17T06:04:51.269Z,98502.13
2019-01-17T06:07:22.060Z,98502.69
2019-01-17T06:09:53.053Z,98501.89
2019-01-17T06:12:23.940Z,98493.53
2019-01-17T06:14:54.815Z,98490.47
2019-01-17T06:17:25.597Z,98488.76
2019-01-17T06:19:56.645Z,98482.80
2019-01-17T06:22:27.593Z,98485.33
2019-01-17T06:24:58.720Z,98487.91
2019-01-17T06:27:29.564Z,98492.61
2019-01-17T06:30:00.541Z,98485.91
2019-01-17T06:32:31.428Z,98473.17
2019-01-17T06:35:02.446Z,98473.39
2019-01-17T06:37:33.389Z,98480.45
2019-01-17T06:40:04.804Z,98479.08
2019-01-17T06:42:35.716Z,98469.52
2019-01-17T06:45:06.793Z,98460.36
2019-01-17T06:47:37.674Z,98463.93
2019-01-17T06:50:09.364Z,98464.91
2019-01-17T06:52:40.294Z,98468.87
2019-01-17T06:55:11.544Z,98467.45
2019-01-17T06:57:42.479Z,98450.98
2019-01-17T07:00:14.594Z,98451.13
2019-01-17T07:02:45.585Z,98446.45
2019-01-17T07:05:16.401Z,98442.66
2019-01-17T07:07:47.337Z,98444.13
2019-01-17T07:10:18.428Z,98439.37
2019-01-17T07:12:49.315Z,98437.66
2019-01-17T07:15:20.058Z,98439.61
2019-01-17T07:17:50.721Z,98443.67
2019-01-17T07:20:21.705Z,98433.49
2019-01-17T07:22:52.688Z,98444.50
2019-01-17T07:25:23.510Z,98445.94
2019-01-17T07:27:54.057Z,98442.94
2019-01-17T07:30:25.439Z,98448.07
2019-01-17T07:32:56.128Z,98447.42
2019-01-17T07:35:26.851Z,98449.65
2019-01-17T07:37:57.809Z,98449.59
2019-01-17T07:40:28.685Z,98457.84
2019-01-17T07:42:59.553Z,98459.41
2019-01-17T07:45:31.705Z,98461.13
2019-01-17T07:48:02.821Z,98461.29
2019-01-17T07:50:33.969Z,98466.66
2019-01-17T07:53:05.024Z,98465.08
2019-01-17T07:55:35.999Z,98471.47
2019-01-17T07:58:06.744Z,98470.36
2019-01-17T08:00:37.421Z,98479.90
2019-01-17T08:03:08.449Z,98476.64
2019-01-17T08:05:39.414Z,98483.18
2019-01-17T08:08:09.966Z,98476.84
2019-01-17T08:10:40.574Z,98478.36
2019-01-17T08:13:11.321Z,98486.17
2019-01-17T08:15:42.335Z,98489.83
2019-01-17T08:18:18.632Z,98481.41
2019-01-17T08:20:45.958Z,98487.44
2019-01-17T08:23:16.632Z,98491.69
2019-01-17T08:25:47.365Z,98497.28
2019-01-17T08:28:18.221Z,98505.56
2019-01-17T08:30:50.209Z,98507.93
2019-01-17T08:33:21.117Z,98508.53
2019-01-17T08:35:52.112Z,98507.87
2019-01-17T08:38:22.980Z,98510.47
2019-01-17T08:40:53.966Z,98510.17
2019-01-17T08:43:24.755Z,98506.80
2019-01-17T08:45:55.570Z,98518.78
2019-01-17T08:48:26.536Z,98522.06
2019-01-17T08:50:57.528Z,98530.05
2019-01-17T08:53:28.396Z,98534.14
2019-01-17T08:56:00.833Z,98526.92
2019-01-17T08:58:32.034Z,98536.40
2019-01-17T09:01:02.933Z,98540.70
2019-01-17T09:03:33.792Z,98545.47
2019-01-17T09:06:04.784Z,98539.69
2019-01-17T09:08:35.569Z,98551.95
2019-01-17T09:11:06.960Z,98548.98
2019-01-17T09:13:37.872Z,98543.84
2019-01-17T09:16:08.847Z,98539.13
2019-01-17T09:18:39.729Z,98540.97
2019-01-17T09:21:10.740Z,98543.66
2019-01-17T09:23:41.628Z,98546.94
2019-01-17T09:26:12.807Z,98551.19
2019-01-17T09:28:43.695Z,98555.53
2019-01-17T09:31:14.702Z,98549.72
2019-01-17T09:33:45.488Z,98557.31
2019-01-17T09:36:16.588Z,98561.88
2019-01-17T09:38:47.554Z,98562.48
2019-01-17T09:41:19.485Z,98569.09
2019-01-17T09:43:50.654Z,98569.09
2019-01-17T09:46:21.774Z,98569.98
2019-01-17T09:48:52.648Z,98574.69
2019-01-17T09:51:23.613Z,98564.24
2019-01-17T09:53:54.585Z,98576.09
2019-01-17T09:56:25.535Z,98579.09
2019-01-17T09:58:56.503Z,98579.92
2019-01-17T10:01:27.572Z,98580.58
2019-01-17T10:03:58.478Z,98577.80
2019-01-17T10:06:29.481Z,98583.34
2019-01-17T10:09:00.371Z,98584.08
2019-01-17T10:11:32.667Z,98583.39
2019-01-17T10:14:03.574Z,98589.00
2019-01-17T10:17:02.871Z,98587.97
2019-01-17T10:19:58.661Z,98584.83
2019-01-17T10:22:54.310Z,98586.45
2019-01-17T10:25:50.246Z,98584.52
2019-01-17T10:28:59.969Z,98578.52
2019-01-17T10:32:08.623Z,98579.39
2019-01-17T10:35:32.281Z,98578.36
2019-01-17T10:38:28.928Z,98582.16
2019-01-17T10:41:30.861Z,98577.06
2019-01-17T10:44:42.184Z,98582.41
2019-01-17T10:47:47.311Z,98579.80
2019-01-17T10:50:53.679Z,98578.36
2019-01-17T10:54:10.903Z,98586.16
2019-01-17T10:57:31.403Z,98585.78
2019-01-17T11:00:43.174Z,98582.23
2019-01-17T11:03:39.954Z,98589.64
2019-01-17T11:06:46.826Z,98580.55
2019-01-17T11:09:26.633Z,98579.08
2019-01-17T11:12:44.921Z,98573.05
2019-01-17T11:15:52.123Z,98568.22
2019-01-17T11:19:06.161Z,98575.88
2019-01-17T11:22:06.804Z,98578.72
2019-01-17T11:25:02.446Z,98571.30
2019-01-17T11:27:57.015Z,98579.86
2019-01-17T11:31:37.067Z,98575.42
2019-01-17T11:34:53.774Z,98564.83
2019-01-17T11:38:10.345Z,98559.61
2019-01-17T11:41:00.992Z,98569.00
2019-01-17T11:44:05.305Z,98560.67
2019-01-17T11:47:38.297Z,98572.38
2019-01-17T11:50:48.764Z,98562.97
2019-01-17T11:53:52.881Z,98555.34
2019-01-17T11:56:40.800Z,98550.53
2019-01-17T11:59:48.013Z,98552.02
2019-01-17T12:03:07.074Z,98555.30
2019-01-17T12:05:37.821Z,98555.30
2019-01-17T12:08:12.256Z,98563.28
2019-01-17T12:10:43.167Z,98561.20
2019-01-17T12:13:18.660Z,98569.02
2019-01-17T12:15:49.453Z,98573.78
2019-01-17T12:18:20.385Z,98574.93
2019-01-17T12:20:51.429Z,98572.53
2019-01-17T12:23:22.471Z,98571.70
2019-01-17T12:25:53.469Z,98570.68
2019-01-17T12:28:24.352Z,98577.23
2019-01-17T12:30:55.329Z,98570.36
2019-01-17T12:33:26.219Z,98575.95
2019-01-17T12:35:57.101Z,98582.02
2019-01-17T12:38:27.989Z,98585.05
2019-01-17T12:40:59.150Z,98582.02
2019-01-17T12:43:32.515Z,98572.89
2019-01-17T12:46:08.613Z,98582.05
2019-01-17T12:48:39.431Z,98575.13
2019-01-17T12:51:10.732Z,98574.16
2019-01-17T12:53:41.630Z,98574.48
2019-01-17T12:56:12.624Z,98574.93
2019-01-17T12:58:43.383Z,98575.91
2019-01-17T13:01:14.460Z,98571.20
2019-01-17T13:03:45.361Z,98559.41
2019-01-17T13:06:16.271Z,98564.64
2019-01-17T13:08:48.085Z,98568.35
2019-01-17T13:11:19.040Z,98571.64
2019-01-17T13:13:49.850Z,98567.78
2019-01-17T13:16:21.204Z,98570.98
2019-01-17T13:18:52.118Z,98566.44
2019-01-17T13:21:23.131Z,98561.81
2019-01-17T13:23:54.117Z,98557.79
2019-01-17T13:26:24.996Z,98559.73
2019-01-17T13:28:55.984Z,98552.05
2019-01-17T13:31:27.232Z,98559.42
2019-01-17T13:33:58.181Z,98557.05
2019-01-17T13:36:29.172Z,98562.47
2019-01-17T13:39:00.040Z,98567.92
2019-01-17T13:41:31.308Z,98566.81
2019-01-17T13:44:02.240Z,98568.16
2019-01-17T13:46:33.217Z,98574.77
2019-01-17T13:49:04.100Z,98569.41
2019-01-17T13:51:35.163Z,98571.44
2019-01-17T13:54:06.185Z,98574.92
2019-01-17T13:56:37.141Z,98570.52
2019-01-17T13:59:07.979Z,98580.80
2019-01-17T14:01:39.029Z,98570.23
2019-01-17T14:04:09.959Z,98576.94
2019-01-17T14:06:40.958Z,98580.36
2019-01-17T14:09:11.833Z,98595.34
2019-01-17T14:11:42.808Z,98599.79
2019-01-17T14:14:13.559Z,98606.16
2019-01-17T14:24:19.397Z,98612.50
2019-01-17T14:26:50.190Z,98619.92
2019-01-17T14:29:21.068Z,98624.95
2019-01-17T14:31:51.993Z,98631.59
2019-01-17T14:34:23.062Z,98635.95
2019-01-17T14:36:53.944Z,98632.06
2019-01-17T14:39:24.836Z,98633.30
2019-01-17T14:41:55.749Z,98631.48
2019-01-17T14:44:26.450Z,98631.55
2019-01-17T14:46:57.444Z,98629.33
2019-01-17T14:49:28.467Z,98639.32
2019-01-17T14:51:59.369Z,98634.79
2019-01-17T14:54:30.164Z,98642.73
2019-01-17T14:57:01.074Z,98647.70
2019-01-17T14:59:31.912Z,98653.28
2019-01-17T15:02:02.962Z,98647.98
2019-01-17T15:04:33.758Z,98653.23
2019-01-17T15:07:04.593Z,98652.35
2019-01-17T15:09:35.362Z,98654.20
2019-01-17T15:12:06.267Z,98662.24
2019-01-17T15:14:37.106Z,98662.97
2019-01-17T15:17:08.019Z,98672.56
2019-01-17T15:19:38.882Z,98669.93
2019-01-17T15:22:09.806Z,98658.48
2019-01-17T15:24:40.551Z,98664.80
2019-01-17T15:27:11.422Z,98664.33
2019-01-17T15:29:42.355Z,98667.67
2019-01-17T15:32:13.238Z,98675.70
2019-01-17T15:34:44.035Z,98685.91
2019-01-17T15:37:14.890Z,98688.40
2019-01-17T15:39:45.672Z,98689.23
2019-01-17T15:42:16.649Z,98698.59
2019-01-17T15:44:47.537Z,98695.81
2019-01-17T15:47:18.366Z,98703.95
2019-01-17T15:49:49.150Z,98713.22
2019-01-17T15:52:20.210Z,98719.27
2019-01-17T15:54:51.097Z,98728.95
2019-01-17T15:57:22.162Z,98737.41
2019-01-17T15:59:52.800Z,98740.20
2019-01-17T16:02:23.871Z,98743.70
2019-01-17T16:04:54.702Z,98753.38
2019-01-17T16:07:25.523Z,98755.76
2019-01-17T16:09:56.318Z,98761.95
2019-01-17T16:12:26.998Z,98772.23
2019-01-17T16:14:57.928Z,98779.44
2019-01-17T16:17:28.926Z,98780.78
2019-01-17T16:19:59.807Z,98785.09
2019-01-17T16:22:30.884Z,98791.59
2019-01-17T16:25:01.741Z,98793.44
2019-01-17T16:27:32.552Z,98800.85
2019-01-17T16:30:03.314Z,98795.30
2019-01-17T16:32:34.094Z,98792.51
2019-01-17T16:35:05.675Z,98795.08
2019-01-17T16:37:36.682Z,98801.65
2019-01-17T16:40:09.303Z,98804.95
2019-01-17T16:42:40.134Z,98815.86
2019-01-17T16:45:12.131Z,98817.08
2019-01-17T16:47:43.105Z,98812.68
2019-01-17T16:50:21.668Z,98816.19
2019-01-17T16:52:52.618Z,98822.66
2019-01-17T16:55:23.450Z,98829.45
2019-01-17T16:57:54.442Z,98822.85
2019-01-17T17:00:30.549Z,98830.34
2019-01-17T17:03:01.571Z,98824.99
2019-01-17T17:05:32.466Z,98825.62
2019-01-17T17:08:03.414Z,98812.95
2019-01-17T17:10:34.306Z,98804.30
2019-01-17T17:13:05.561Z,98807.48
2019-01-17T17:15:36.323Z,98806.45
2019-01-17T17:18:07.101Z,98816.81
2019-01-17T17:20:37.969Z,98810.13
2019-01-17T17:23:08.746Z,98806.66
2019-01-17T17:25:39.530Z,98811.97
2019-01-17T17:28:10.515Z,98808.38
2019-01-17T17:30:41.350Z,98815.77
2019-01-17T17:33:12.421Z,98818.19
2019-01-17T17:35:43.317Z,98826.62
2019-01-17T17:38:14.207Z,98837.39
2019-01-17T17:40:45.061Z,98843.39
2019-01-17T17:43:16.097Z,98836.92
2019-01-17T17:45:46.870Z,98853.05
2019-01-17T17:48:17.726Z,98856.42
2019-01-17T17:50:48.438Z,98857.27
2019-01-17T17:53:19.773Z,98858.67
2019-01-17T17:55:50.484Z,98858.72
2019-01-17T17:58:21.370Z,98869.72
2019-01-17T18:01:09.779Z,98877.61
2019-01-17T18:03:40.741Z,98875.48
2019-01-17T18:06:11.650Z,98880.03
2019-01-17T18:08:42.526Z,98889.68
2019-01-17T18:11:13.468Z,98893.39
2019-01-17T18:13:44.425Z,98893.89
2019-01-17T18:16:15.311Z,98900.07
2019-01-17T18:18:46.277Z,98909.98
2019-01-17T18:21:17.214Z,98915.25
2019-01-17T18:23:48.086Z,98910.43
2019-01-17T18:26:18.990Z,98917.30
2019-01-17T18:28:49.866Z,98917.45
2019-01-17T18:31:20.730Z,98920.62
2019-01-17T18:33:51.526Z,98924.59
2019-01-17T18:36:22.374Z,98935.32
2019-01-17T18:38:53.181Z,98942.97
2019-01-17T18:41:24.075Z,98947.14
2019-01-17T18:43:55.093Z,98951.36
2019-01-17T18:46:26.003Z,98958.88
2019-01-17T18:48:57.130Z,98961.36
2019-01-17T18:51:27.934Z,98973.02
2019-01-17T18:53:58.825Z,98975.48
2019-01-17T18:56:29.910Z,98979.42
2019-01-17T18:59:01.021Z,98983.43
2019-01-17T19:01:31.493Z,98984.07
2019-01-17T19:04:02.380Z,98985.81
2019-01-17T19:06:34.220Z,98978.96
2019-01-17T19:09:07.810Z,98982.09
2019-01-17T19:11:38.650Z,98983.47
2019-01-17T19:14:09.597Z,98980.86
2019-01-17T19:16:40.321Z,98994.61
2019-01-17T19:19:11.268Z,99000.57
2019-01-17T19:21:42.157Z,99003.25
2019-01-17T19:24:13.079Z,99006.25
2019-01-17T19:26:43.771Z,99001.98
2019-01-17T19:29:14.753Z,99005.55
2019-01-17T19:31:45.546Z,99003.38
2019-01-17T19:34:16.185Z,99006.30
2019-01-17T19:36:46.663Z,99008.66
2019-01-17T19:39:17.334Z,99004.72
2019-01-17T19:41:47.970Z,99012.47
2019-01-17T19:44:18.950Z,99004.91
2019-01-17T19:46:49.741Z,99000.57
2019-01-17T19:49:21.062Z,99001.98
2019-01-17T19:51:51.928Z,99001.15
2019-01-17T19:54:22.662Z,98998.14
2019-01-17T19:56:53.497Z,99000.75
2019-01-17T19:59:24.250Z,98998.48
2019-01-17T20:01:55.033Z,98997.78
2019-01-17T20:04:26.046Z,98995.56
2019-01-17T20:06:56.945Z,98993.14
2019-01-17T20:09:27.905Z,98992.68
2019-01-17T20:11:58.785Z,98990.03
2019-01-17T20:14:29.875Z,98996.38
2019-01-17T20:17:00.803Z,98992.95
2019-01-17T20:19:31.796Z,98988.62
2019-01-17T20:22:02.646Z,98984.25
2019-01-17T20:24:33.551Z,98987.02
2019-01-17T20:27:04.615Z,98987.61
2019-01-17T20:29:35.607Z,98985.83
2019-01-17T20:32:07.422Z,98998.54
2019-01-17T20:34:38.302Z,98991.36
2019-01-17T20:37:08.946Z,98998.28
2019-01-17T20:39:39.805Z,98997.20
2019-01-17T20:42:11.572Z,98997.84
2019-01-17T20:44:42.430Z,99005.16
2019-01-17T20:47:13.267Z,99001.34
2019-01-17T20:49:44.165Z,99012.66
2019-01-17T20:52:14.862Z,99020.04
2019-01-17T20:54:45.850Z,99027.08
2019-01-17T20:57:16.977Z,99024.94
2019-01-17T20:59:47.877Z,99040.57
2019-01-17T21:02:20.623Z,99051.25
2019-01-17T21:04:52.663Z,99103.88
2019-01-17T21:07:23.264Z,99110.66
2019-01-17T21:09:54.518Z,99120.42
2019-01-17T21:12:25.410Z,99139.41
2019-01-17T21:14:56.205Z,99145.48
2019-01-17T21:17:27.237Z,99144.58
2019-01-17T21:19:58.273Z,99154.78
2019-01-17T21:22:28.882Z,99149.05
2019-01-17T21:24:59.398Z,99148.02
2019-01-17T21:27:30.258Z,99141.91
2019-01-17T21:30:01.011Z,99139.91
2019-01-17T21:32:31.894Z,99135.78
2019-01-17T21:35:02.511Z,99135.55
2019-01-17T21:37:33.270Z,99134.50
2019-01-17T21:40:04.757Z,99137.17
2019-01-17T21:42:35.645Z,99139.81
2019-01-17T21:45:09.074Z,99140.30
2019-01-17T21:47:39.708Z,99119.06
2019-01-17T21:50:13.030Z,99125.91
2019-01-17T21:52:43.944Z,99135.50
2019-01-17T21:55:14.807Z,99146.63
2019-01-17T21:57:45.583Z,99156.03
2019-01-17T22:00:22.638Z,99164.20
2019-01-17T22:02:53.608Z,99170.06
2019-01-17T22:05:25.782Z,99176.90
2019-01-17T22:07:56.823Z,99177.37
2019-01-17T22:10:27.719Z,99193.98
2019-01-17T22:12:58.586Z,99195.70
2019-01-17T22:15:29.369Z,99199.23
2019-01-17T22:18:00.159Z,99203.05
2019-01-17T22:20:32.663Z,99209.70
2019-01-17T22:23:03.606Z,99216.66
2019-01-17T22:25:34.651Z,99218.03
2019-01-17T22:28:05.549Z,99223.58
2019-01-17T22:30:36.475Z,99226.07
2019-01-17T22:33:07.317Z,99221.83
2019-01-17T22:35:38.498Z,99228.01
2019-01-17T22:38:09.491Z,99236.66
2019-01-17T22:40:40.416Z,99230.67
2019-01-17T22:43:11.181Z,99232.67
2019-01-17T22:45:42.150Z,99236.28
2019-01-17T22:48:12.954Z,99240.39
2019-01-17T22:50:43.842Z,99240.04
2019-01-17T22:53:14.782Z,99247.05
2019-01-17T22:55:45.531Z,99256.05
2019-01-17T22:58:16.340Z,99257.38
2019-01-17T23:00:54.525Z,99256.84
2019-01-17T23:03:43.065Z,99260.66
2019-01-17T23:06:14.046Z,99257.05
2019-01-17T23:08:44.678Z,99256.44
2019-01-17T23:11:15.723Z,99251.84
2019-01-17T23:13:46.551Z,99259.69
2019-01-17T23:16:17.614Z,99259.22
2019-01-17T23:18:48.386Z,99254.71
2019-01-17T23:21:19.476Z,99250.87
2019-01-17T23:23:50.407Z,99257.20
2019-01-17T23:26:21.594Z,99254.85
2019-01-17T23:28:52.458Z,99253.87
2019-01-17T23:31:23.353Z,99258.21
2019-01-17T23:33:54.029Z,99266.67
2019-01-17T23:36:24.806Z,99264.36
2019-01-17T23:38:55.700Z,99264.86
2019-01-17T23:41:26.582Z,99269.34
2019-01-17T23:43:58.970Z,99265.49
2019-01-17T23:46:31.033Z,99267.84
2019-01-17T23:49:01.838Z,99274.13
2019-01-17T23:51:32.425Z,99266.84
2019-01-17T23:54:03.202Z,99267.84
2019-01-17T23:56:34.085Z,99259.55
2019-01-17T23:59:04.561Z,99266.19
